Assinippi, Massachusetts
Current Conditions -  °F | °C
As of 7:21 AM on Monday 24 Nov 2014 (Local Time) from KPYM Reporting Station
Moderate Rain Moderate Rain  
Wind Chill: 14°   Ceiling: 900
Heat Index: 14°   Visibility: 2.5mi
Dew Point: 13°   Wind: 13mph
Humidity: 96%   Direction: 160°SSE
Pressure: 29.9"   Gusts: 29mph
Location:  42.1315°N, 70.8467°W
Report Text: KPYM 241221Z AUTO 16011G25KT 2 1/2SM RA BR OVC009 14/13 A2990 RMK AO2 VIS 2V4 P0013 T01390133
Loading
Personal Weather Stations






























Interactive Weather Map New forecast layout! Learn more

10-Day Weather Forecast

Advertisements
Track Severe Weather on mobile